Academy, SD

6:34 AM CST on March 04, 2015 (GMT -0600)
Mitchell Municipal | Change Station
CLOSE
Current Station
Airport
Location: Mitchell,
Elevation: 1302 ft
Nearby Weather Stations

Elev 1302 ft 43.77 °N, 98.04 °W | Updated 41 minutes ago

Clear
Clear
2 °F
Feels Like -11 °F
N
7
Wind Variable Wind from WSW

Today
High -- | Low -- °F
--% Chance of Precip.
Yesterday
High -- | Low -- °F
Precip. -- in
7:07 AM 6:28 PM
Waxing Gibbous, 99% visible
Pressure 30.27 in
Visibility 10.0 miles
Clouds Clear
Windchill -11 °F
Dew Point -4 °F
Humidity 76%
Rainfall 0.00 in
Snow Depth Not available.
UV 0 out of 12
Pollen .40 out of 12
Air Quality Not available.
Flu Activity Not available.
METAR KMHE 041153Z AUTO 25006KT 10SM CLR M17/M20 A3019 RMK AO2 SLP251 70003 T11671200 11144 21183 53002 $

More Conditions Fewer Conditions

Pressure 30.27 in
Visibility 10.0 miles
Clouds Clear
Windchill -11 °F
Dew Point -4 °F
Humidity 76%
Rainfall 0.00 in
Snow Depth Not available.
UV 0 out of 12
Pollen .40 out of 12
Air Quality Not available.
Flu Activity Not available.
METAR KMHE 041153Z AUTO 25006KT 10SM CLR M17/M20 A3019 RMK AO2 SLP251 70003 T11671200 11144 21183 53002 $

More Conditions Fewer Conditions

10-Day Weather Forecast

Almanac

Astronomy

Mar. 04, 2015 Rise Set
Actual Time
Civil Twilight
Nautical Twilight
Astronomical Twilight
Moon
Length of Visible Light
Length of Day
Tomorrow will be .
, % of the Moon is Illuminated

Today's Extremes

State Highs State Lows

Community

WunderPhotos

Upload Photos

1,802,439 photos uploaded!

WunderBlogs® & News

Nearby

Air Quality

  Air Quality AQ Index Pollutant
Not available.

Snow Depth

Station Depth Elevation

Earthquake Activity

City Distance Mag. Time & Date
Minimum magnitude displayed is 2.5.

Coastal Water Temperatures

Place Temperature

Nearby Weather Stations